createdAt,value
2022-07-30T00:00:55.773Z,99.99
2022-07-30T00:01:55.616Z,99.99
2022-07-30T00:02:55.621Z,99.99
2022-07-30T00:03:55.785Z,99.99
2022-07-30T00:04:55.625Z,99.99
2022-07-30T00:05:56.326Z,99.99
2022-07-30T00:06:55.635Z,99.99
2022-07-30T00:07:55.636Z,99.99
2022-07-30T00:08:55.626Z,99.99
2022-07-30T00:09:55.648Z,99.99
2022-07-30T00:10:58.677Z,99.99
2022-07-30T00:11:55.647Z,99.99
2022-07-30T00:12:55.674Z,99.99
2022-07-30T00:13:55.647Z,99.99
2022-07-30T00:14:55.622Z,99.99
2022-07-30T00:15:55.653Z,99.99
2022-07-30T00:16:56.252Z,99.99
2022-07-30T00:17:55.643Z,99.99
2022-07-30T00:18:55.942Z,99.99
2022-07-30T00:19:56.001Z,99.99
2022-07-30T00:20:55.768Z,99.99
2022-07-30T00:21:58.502Z,99.99
2022-07-30T00:22:55.671Z,99.99
2022-07-30T00:24:04.171Z,99.99
2022-07-30T00:24:55.654Z,99.99
2022-07-30T00:25:55.645Z,99.99
2022-07-30T00:26:55.649Z,99.99
2022-07-30T00:27:55.642Z,99.99
2022-07-30T00:28:55.656Z,99.99
2022-07-30T00:29:55.696Z,99.99
2022-07-30T00:30:58.654Z,99.99
2022-07-30T00:31:55.655Z,99.99
2022-07-30T00:32:55.697Z,99.99
2022-07-30T00:33:55.662Z,99.99
2022-07-30T00:34:55.662Z,99.99
2022-07-30T00:35:55.661Z,99.99
2022-07-30T00:36:55.663Z,99.99
2022-07-30T00:37:55.696Z,99.99
2022-07-30T00:38:56.871Z,99.99
2022-07-30T00:39:55.662Z,99.99
2022-07-30T00:40:55.670Z,99.99
2022-07-30T00:41:55.668Z,99.99
2022-07-30T00:42:55.713Z,99.99
2022-07-30T00:43:55.670Z,99.99
2022-07-30T00:48:55.958Z,99.99
2022-07-30T00:49:55.689Z,99.99
2022-07-30T00:50:55.688Z,99.99
2022-07-30T00:51:55.691Z,99.99
2022-07-30T00:52:55.725Z,99.99
2022-07-30T00:53:55.725Z,99.99
2022-07-30T00:54:55.693Z,99.99
2022-07-30T00:55:55.703Z,99.99
2022-07-30T00:56:56.494Z,99.99
2022-07-30T00:57:56.501Z,99.99
2022-07-30T00:58:55.705Z,99.99
2022-07-30T00:59:58.559Z,99.99
2022-07-30T01:00:55.834Z,99.99
2022-07-30T01:01:55.837Z,99.99
2022-07-30T01:02:55.737Z,99.99
2022-07-30T01:03:55.710Z,99.99
2022-07-30T01:04:55.712Z,99.99
2022-07-30T01:05:55.715Z,99.99
2022-07-30T01:06:55.721Z,99.99
2022-07-30T01:07:55.741Z,99.99
2022-07-30T01:08:55.736Z,99.99
2022-07-30T01:09:55.723Z,99.99
2022-07-30T01:10:56.854Z,99.99
2022-07-30T01:11:55.733Z,99.99
2022-07-30T01:12:55.752Z,99.99
2022-07-30T01:13:55.728Z,99.99
2022-07-30T01:14:55.743Z,99.99
2022-07-30T01:15:55.747Z,99.99
2022-07-30T01:16:55.879Z,99.99
2022-07-30T01:17:55.766Z,99.99
2022-07-30T01:18:55.732Z,99.99
2022-07-30T01:19:55.740Z,99.99
2022-07-30T01:20:55.764Z,99.99
2022-07-30T01:21:55.749Z,99.99
2022-07-30T01:22:55.767Z,99.99
2022-07-30T01:23:55.750Z,99.99
2022-07-30T01:24:55.756Z,99.99
2022-07-30T01:25:57.836Z,99.99
2022-07-30T01:26:55.756Z,99.99
2022-07-30T01:27:55.812Z,99.99
2022-07-30T01:28:55.772Z,99.99
2022-07-30T01:29:55.761Z,99.99
2022-07-30T01:30:55.763Z,99.99
2022-07-30T01:31:55.902Z,99.99
2022-07-30T01:32:55.810Z,99.99
2022-07-30T01:33:55.767Z,99.99
2022-07-30T01:34:55.769Z,99.99
2022-07-30T01:35:55.774Z,99.99
2022-07-30T01:36:55.772Z,99.99
2022-07-30T01:37:55.821Z,99.99
2022-07-30T01:38:55.775Z,99.99
2022-07-30T01:39:55.782Z,99.99
2022-07-30T01:40:55.781Z,99.99
2022-07-30T01:41:55.780Z,99.99
2022-07-30T01:42:57.081Z,99.99
2022-07-30T01:43:55.797Z,99.99
2022-07-30T01:44:55.787Z,99.99
2022-07-30T01:45:55.934Z,99.99
2022-07-30T01:46:55.803Z,99.99
2022-07-30T01:47:55.816Z,99.99
2022-07-30T01:48:55.871Z,99.99
2022-07-30T01:49:55.803Z,99.99
2022-07-30T01:50:55.801Z,99.99
2022-07-30T01:51:55.816Z,99.99
2022-07-30T01:52:55.829Z,99.99
2022-07-30T01:53:58.808Z,99.99
2022-07-30T01:54:55.807Z,99.99
2022-07-30T01:55:55.807Z,99.99
2022-07-30T01:56:55.954Z,99.99
2022-07-30T01:57:55.829Z,99.99
2022-07-30T01:58:55.815Z,99.99
2022-07-30T01:59:55.824Z,99.99
2022-07-30T02:00:55.915Z,99.99
2022-07-30T02:01:55.818Z,99.99
2022-07-30T02:02:55.885Z,99.99
2022-07-30T02:03:57.142Z,99.99
2022-07-30T02:04:58.649Z,99.99
2022-07-30T02:05:55.836Z,99.99
2022-07-30T02:06:55.826Z,99.99
2022-07-30T02:07:55.853Z,99.99
2022-07-30T02:08:55.829Z,99.99
2022-07-30T02:09:55.836Z,99.99
2022-07-30T02:10:55.838Z,99.99
2022-07-30T02:11:55.835Z,99.99
2022-07-30T02:12:55.860Z,99.99
2022-07-30T02:13:55.829Z,99.99
2022-07-30T02:14:55.861Z,99.99
2022-07-30T02:15:58.674Z,99.99
2022-07-30T02:16:55.848Z,99.99
2022-07-30T02:17:55.876Z,99.99
2022-07-30T02:18:55.852Z,99.99
2022-07-30T02:19:55.880Z,99.99
2022-07-30T02:20:55.850Z,99.99
2022-07-30T02:21:55.857Z,99.99
2022-07-30T02:22:55.873Z,99.99
2022-07-30T02:23:55.857Z,99.99
2022-07-30T02:24:55.871Z,99.99
2022-07-30T02:25:55.865Z,99.99
2022-07-30T02:26:58.870Z,99.99
2022-07-30T02:27:55.903Z,99.99
2022-07-30T02:28:55.871Z,99.99
2022-07-30T02:29:55.868Z,99.99
2022-07-30T02:30:55.907Z,99.99
2022-07-30T02:31:55.996Z,99.99
2022-07-30T02:32:55.919Z,99.99
2022-07-30T02:33:55.868Z,99.99
2022-07-30T02:34:55.886Z,99.99
2022-07-30T02:35:55.880Z,99.99
2022-07-30T02:36:55.877Z,99.99
2022-07-30T02:37:57.700Z,99.99
2022-07-30T02:38:55.928Z,99.99
2022-07-30T02:39:55.880Z,99.99
2022-07-30T02:40:55.884Z,99.99
2022-07-30T02:41:55.885Z,99.99
2022-07-30T02:42:55.890Z,99.99
2022-07-30T02:43:55.889Z,99.99
2022-07-30T02:44:56.898Z,99.99
2022-07-30T02:45:55.893Z,99.99
2022-07-30T02:46:56.138Z,99.99
2022-07-30T02:47:55.895Z,99.99
2022-07-30T02:48:59.023Z,99.99
2022-07-30T02:49:55.921Z,99.99
2022-07-30T02:50:55.902Z,99.99
2022-07-30T02:51:56.681Z,99.99
2022-07-30T02:52:55.911Z,99.99
2022-07-30T02:53:55.909Z,99.99
2022-07-30T02:54:55.907Z,99.99
2022-07-30T02:55:55.917Z,99.99
2022-07-30T02:56:55.909Z,99.99
2022-07-30T02:57:55.925Z,99.99
2022-07-30T02:58:55.922Z,99.99
2022-07-30T02:59:59.363Z,99.99
2022-07-30T03:00:56.092Z,99.99
2022-07-30T03:01:56.087Z,99.99
2022-07-30T03:02:59.159Z,99.99
2022-07-30T03:03:55.934Z,99.99
2022-07-30T03:04:55.925Z,99.99
2022-07-30T03:05:55.954Z,99.99
2022-07-30T03:06:55.945Z,99.99
2022-07-30T03:07:55.929Z,99.99
2022-07-30T03:08:55.937Z,99.99
2022-07-30T03:09:58.930Z,99.99
2022-07-30T03:10:55.999Z,99.99
2022-07-30T03:11:55.971Z,99.99
2022-07-30T03:12:55.990Z,99.99
2022-07-30T03:13:55.951Z,99.99
2022-07-30T03:14:55.985Z,99.99
2022-07-30T03:15:56.103Z,99.99
2022-07-30T03:16:55.977Z,99.99
2022-07-30T03:17:57.841Z,99.99
2022-07-30T03:18:55.949Z,99.99
2022-07-30T03:19:55.962Z,99.99
2022-07-30T03:20:55.986Z,99.99
2022-07-30T03:22:04.990Z,99.99
2022-07-30T03:22:56.962Z,99.99
2022-07-30T03:23:56.007Z,99.99
2022-07-30T03:24:56.006Z,99.99
2022-07-30T03:25:56.910Z,99.99
2022-07-30T03:26:59.050Z,99.99
2022-07-30T03:27:56.996Z,99.99
2022-07-30T03:28:58.942Z,99.99
2022-07-30T03:29:56.013Z,99.99
2022-07-30T03:30:56.137Z,99.99
2022-07-30T03:31:56.536Z,99.99
2022-07-30T03:32:56.035Z,99.99
2022-07-30T03:33:56.495Z,99.99
2022-07-30T03:34:56.068Z,99.99
2022-07-30T03:35:55.998Z,99.99
2022-07-30T03:36:55.986Z,99.99
2022-07-30T03:37:58.842Z,99.99
2022-07-30T03:38:56.025Z,99.99
2022-07-30T03:39:55.996Z,99.99
2022-07-30T03:40:56.002Z,99.99
2022-07-30T03:41:57.063Z,99.99
2022-07-30T03:42:56.004Z,99.99
2022-07-30T03:43:56.018Z,99.99
2022-07-30T03:44:55.996Z,99.99
2022-07-30T03:45:56.003Z,99.99
2022-07-30T03:46:56.204Z,99.99
2022-07-30T03:47:56.007Z,99.99
2022-07-30T03:48:56.129Z,99.99
2022-07-30T03:49:56.003Z,99.99
2022-07-30T03:50:56.006Z,99.99
2022-07-30T03:51:56.014Z,99.99
2022-07-30T03:52:56.016Z,99.99
2022-07-30T03:53:56.021Z,99.99
2022-07-30T03:54:56.027Z,99.99
2022-07-30T03:55:56.023Z,99.99
2022-07-30T03:56:56.018Z,99.99
2022-07-30T03:57:56.025Z,99.99
2022-07-30T03:58:56.018Z,99.99
2022-07-30T03:59:56.029Z,99.99
2022-07-30T04:00:56.037Z,99.99
2022-07-30T04:01:56.147Z,99.99
2022-07-30T04:02:56.035Z,99.99
2022-07-30T04:03:56.171Z,99.99
2022-07-30T04:04:56.039Z,99.99
2022-07-30T04:05:56.038Z,99.99
2022-07-30T04:06:56.033Z,99.99
2022-07-30T04:07:56.204Z,99.99
2022-07-30T04:08:56.041Z,99.99
2022-07-30T04:09:58.963Z,99.99
2022-07-30T04:10:56.047Z,99.99
2022-07-30T04:11:56.047Z,99.99
2022-07-30T04:12:56.053Z,99.99
2022-07-30T04:13:56.068Z,99.99
2022-07-30T04:14:56.051Z,99.99
2022-07-30T04:16:43.758Z,99.99
2022-07-30T04:17:08.099Z,99.99
2022-07-30T04:18:07.660Z,99.99
2022-07-30T04:19:07.676Z,99.99
2022-07-30T04:20:07.655Z,99.99
2022-07-30T04:21:07.651Z,99.99
2022-07-30T04:22:08.966Z,99.99
2022-07-30T04:23:07.655Z,99.99
2022-07-30T04:24:08.151Z,99.99
2022-07-30T04:25:07.666Z,99.99
2022-07-30T04:26:07.672Z,99.99
2022-07-30T04:27:07.674Z,99.99
2022-07-30T04:28:07.669Z,99.99
2022-07-30T04:29:07.715Z,99.99
2022-07-30T04:30:07.697Z,99.99
2022-07-30T04:31:07.801Z,99.99
2022-07-30T04:32:07.669Z,99.99
2022-07-30T04:33:10.871Z,99.99
2022-07-30T04:34:07.709Z,99.99
2022-07-30T04:35:07.679Z,99.99
2022-07-30T04:36:07.677Z,99.99
2022-07-30T04:37:07.683Z,99.99
2022-07-30T04:38:07.683Z,99.99
2022-07-30T04:39:07.734Z,99.99
2022-07-30T04:40:07.680Z,99.99
2022-07-30T04:41:07.685Z,99.99
2022-07-30T04:42:07.701Z,99.99
2022-07-30T04:43:07.705Z,99.99
2022-07-30T04:44:11.059Z,99.99
2022-07-30T04:45:07.696Z,99.99
2022-07-30T04:46:07.875Z,99.99
2022-07-30T04:47:07.990Z,99.99
2022-07-30T04:48:07.707Z,99.99
2022-07-30T04:49:07.941Z,99.99
2022-07-30T04:50:07.706Z,99.99
2022-07-30T04:51:07.708Z,99.99
2022-07-30T04:52:07.709Z,99.99
2022-07-30T04:53:07.712Z,99.99
2022-07-30T04:54:07.715Z,99.99
2022-07-30T04:55:10.931Z,99.99
2022-07-30T04:56:07.722Z,99.99
2022-07-30T04:57:08.333Z,99.99
2022-07-30T04:58:07.725Z,99.99
2022-07-30T04:59:07.723Z,99.99
2022-07-30T05:00:07.725Z,99.99
2022-07-30T05:01:07.724Z,99.99
2022-07-30T05:02:08.008Z,99.99
2022-07-30T05:03:07.733Z,99.99
2022-07-30T05:04:07.730Z,99.99
2022-07-30T05:05:07.797Z,99.99
2022-07-30T05:06:10.603Z,99.99
2022-07-30T05:07:07.740Z,99.99
2022-07-30T05:08:07.736Z,99.99
2022-07-30T05:09:07.740Z,99.99
2022-07-30T05:10:07.746Z,99.99
2022-07-30T05:11:07.739Z,99.99
2022-07-30T05:12:07.745Z,99.99
2022-07-30T05:13:10.344Z,99.99
2022-07-30T05:14:07.753Z,99.99
2022-07-30T05:15:07.752Z,99.99
2022-07-30T05:16:08.004Z,99.99
2022-07-30T05:17:10.627Z,99.99
2022-07-30T05:18:07.754Z,99.99
2022-07-30T05:19:10.262Z,99.99
2022-07-30T05:20:07.757Z,99.99
2022-07-30T05:21:07.781Z,99.99
2022-07-30T05:22:09.166Z,99.99
2022-07-30T05:23:07.763Z,99.99
2022-07-30T05:24:10.825Z,99.99
2022-07-30T05:25:18.379Z,99.99
2022-07-30T05:26:07.791Z,99.99
2022-07-30T05:27:07.819Z,99.99
2022-07-30T05:28:10.551Z,99.99
2022-07-30T05:29:09.632Z,99.99
2022-07-30T05:30:10.947Z,99.99
2022-07-30T05:31:11.187Z,99.99
2022-07-30T05:32:09.620Z,99.99
2022-07-30T05:33:18.042Z,99.99
2022-07-30T05:34:07.820Z,99.99
2022-07-30T05:35:07.848Z,99.99
2022-07-30T05:36:07.813Z,99.99
2022-07-30T05:37:12.359Z,99.99
2022-07-30T05:38:07.808Z,99.99
2022-07-30T05:39:07.885Z,99.99
2022-07-30T05:40:07.831Z,99.99
2022-07-30T05:41:31.771Z,99.99
2022-07-30T05:42:08.799Z,99.99
2022-07-30T05:43:07.795Z,99.99
2022-07-30T05:44:07.937Z,99.99
2022-07-30T05:45:10.825Z,99.99
2022-07-30T05:46:07.966Z,99.99
2022-07-30T05:47:07.835Z,99.99
2022-07-30T05:48:07.817Z,99.99
2022-07-30T05:49:08.987Z,99.99
2022-07-30T05:50:07.969Z,99.99
2022-07-30T05:51:07.828Z,99.99
2022-07-30T05:52:08.534Z,99.99
2022-07-30T05:53:07.815Z,99.99
2022-07-30T05:54:07.828Z,99.99
2022-07-30T05:55:07.851Z,99.99
2022-07-30T05:56:07.821Z,99.99
2022-07-30T05:57:07.824Z,99.99
2022-07-30T05:58:07.823Z,99.99
2022-07-30T05:59:07.887Z,99.99
2022-07-30T06:00:10.999Z,99.99
2022-07-30T06:01:07.837Z,99.99
2022-07-30T06:02:07.833Z,99.99
2022-07-30T06:03:07.851Z,99.99
2022-07-30T06:04:07.906Z,99.99
2022-07-30T06:05:07.947Z,99.99
2022-07-30T06:06:07.905Z,99.99
2022-07-30T06:07:07.839Z,99.99
2022-07-30T06:08:07.972Z,99.99
2022-07-30T06:09:07.841Z,99.99
2022-07-30T06:10:07.868Z,99.99
2022-07-30T06:11:07.844Z,99.99
2022-07-30T06:12:07.850Z,99.99
2022-07-30T06:13:07.856Z,99.99
2022-07-30T06:14:07.873Z,99.99
2022-07-30T06:15:07.878Z,99.99
2022-07-30T06:16:08.014Z,99.99
2022-07-30T06:17:07.863Z,99.99
2022-07-30T06:18:08.393Z,99.99
2022-07-30T06:19:07.859Z,99.99
2022-07-30T06:20:07.894Z,99.99
2022-07-30T06:21:07.864Z,99.99
2022-07-30T06:22:12.293Z,99.99
2022-07-30T06:23:07.876Z,99.99
2022-07-30T06:24:07.873Z,99.99
2022-07-30T06:25:07.906Z,99.99
2022-07-30T06:26:07.883Z,99.99
2022-07-30T06:27:07.892Z,99.99
2022-07-30T06:28:38.718Z,99.99
2022-07-30T06:29:07.891Z,99.99
2022-07-30T06:30:08.042Z,99.99
2022-07-30T06:31:08.079Z,99.99
2022-07-30T06:32:07.881Z,99.99
2022-07-30T06:33:07.885Z,99.99
2022-07-30T06:34:07.902Z,99.99
2022-07-30T06:35:07.935Z,99.99
2022-07-30T06:36:07.887Z,99.99
2022-07-30T06:37:07.897Z,99.99
2022-07-30T06:38:11.055Z,99.99
2022-07-30T06:39:08.116Z,99.99
2022-07-30T06:40:07.918Z,99.99
2022-07-30T06:41:07.898Z,99.99
2022-07-30T06:42:07.920Z,99.99
2022-07-30T06:43:07.906Z,99.99
2022-07-30T06:44:07.907Z,99.99
2022-07-30T06:45:07.944Z,99.99
2022-07-30T06:46:08.135Z,99.99
2022-07-30T06:47:10.948Z,99.99
2022-07-30T06:48:07.919Z,99.99
2022-07-30T06:49:09.271Z,99.99
2022-07-30T06:50:07.939Z,99.99
2022-07-30T06:51:07.920Z,99.99
2022-07-30T06:52:07.916Z,99.99
2022-07-30T06:53:07.960Z,99.99
2022-07-30T06:54:07.932Z,99.99
2022-07-30T06:55:07.987Z,99.99
2022-07-30T06:56:07.928Z,99.99
2022-07-30T06:57:08.690Z,99.99
2022-07-30T06:58:07.941Z,99.99
2022-07-30T06:59:07.940Z,99.99
2022-07-30T07:00:11.219Z,99.99
2022-07-30T07:01:13.403Z,99.99
2022-07-30T07:02:07.970Z,99.99
2022-07-30T07:03:12.260Z,99.99
2022-07-30T07:04:08.057Z,99.99
2022-07-30T07:05:07.945Z,99.99
2022-07-30T07:06:07.944Z,99.99
2022-07-30T07:07:19.935Z,99.99
2022-07-30T07:08:07.947Z,99.99
2022-07-30T07:09:07.955Z,99.99
2022-07-30T07:10:08.341Z,99.99
2022-07-30T07:11:11.201Z,99.99
2022-07-30T07:12:07.802Z,99.99
2022-07-30T07:13:10.177Z,99.99
2022-07-30T07:14:07.969Z,99.99
2022-07-30T07:15:07.953Z,99.99
2022-07-30T07:16:07.963Z,99.99
2022-07-30T07:17:08.628Z,99.99
2022-07-30T07:18:07.967Z,99.99
2022-07-30T07:19:07.969Z,99.99
2022-07-30T07:20:07.972Z,99.99
2022-07-30T07:21:10.227Z,99.99
2022-07-30T07:22:10.833Z,99.99
2022-07-30T07:23:14.186Z,99.99
2022-07-30T07:24:07.983Z,99.99
2022-07-30T07:25:07.980Z,99.99
2022-07-30T07:26:07.982Z,99.99
2022-07-30T07:27:17.634Z,99.99
2022-07-30T07:28:17.117Z,99.99
2022-07-30T07:29:07.981Z,99.99
2022-07-30T07:30:09.661Z,99.99
2022-07-30T07:31:08.171Z,99.99
2022-07-30T07:32:12.650Z,99.99
2022-07-30T07:33:12.640Z,99.99
2022-07-30T07:34:17.101Z,99.99
2022-07-30T07:35:12.548Z,99.99
2022-07-30T07:36:12.520Z,99.99
2022-07-30T07:37:12.554Z,99.99
2022-07-30T07:38:12.534Z,99.99
2022-07-30T07:39:17.210Z,99.99
2022-07-30T07:40:12.839Z,99.99
2022-07-30T07:41:12.535Z,99.99
2022-07-30T07:42:12.539Z,99.99
2022-07-30T07:43:12.535Z,99.99
2022-07-30T07:44:12.560Z,99.99
2022-07-30T07:45:12.565Z,99.99
2022-07-30T07:46:12.667Z,99.99
2022-07-30T07:47:12.553Z,99.99
2022-07-30T07:48:12.547Z,99.99
2022-07-30T07:49:12.705Z,99.99
2022-07-30T07:50:12.586Z,99.99
2022-07-30T07:51:12.553Z,99.99
2022-07-30T07:52:12.550Z,99.99
2022-07-30T07:53:12.571Z,99.99
2022-07-30T07:54:23.499Z,99.99
2022-07-30T07:55:12.836Z,99.99
2022-07-30T07:56:13.834Z,99.99
2022-07-30T07:57:16.939Z,99.99
2022-07-30T07:58:12.566Z,99.99
2022-07-30T07:59:14.961Z,99.99
2022-07-30T08:00:12.601Z,99.99
2022-07-30T08:01:12.763Z,99.99
2022-07-30T08:02:12.730Z,99.99
2022-07-30T08:03:12.580Z,99.99
2022-07-30T08:04:13.025Z,99.99
2022-07-30T08:05:12.606Z,99.99
2022-07-30T08:06:20.322Z,99.99
2022-07-30T08:07:12.606Z,99.99
2022-07-30T08:08:12.584Z,99.99
2022-07-30T08:09:12.600Z,99.99
2022-07-30T08:10:12.606Z,99.99
2022-07-30T08:11:12.586Z,99.99
2022-07-30T08:12:12.601Z,99.99
2022-07-30T08:13:54.188Z,99.99
2022-07-30T08:14:12.591Z,99.99
2022-07-30T08:15:12.626Z,99.99
2022-07-30T08:16:14.943Z,99.99
2022-07-30T08:17:12.783Z,99.99
2022-07-30T08:18:12.603Z,99.99
2022-07-30T08:19:12.600Z,99.99
2022-07-30T08:20:12.639Z,99.99
2022-07-30T08:21:12.606Z,99.99
2022-07-30T08:22:15.523Z,99.99
2022-07-30T08:23:12.606Z,99.99
2022-07-30T08:24:12.613Z,99.99
2022-07-30T08:25:22.225Z,99.99
2022-07-30T08:26:12.656Z,99.99
2022-07-30T08:27:12.669Z,99.99
2022-07-30T08:28:38.454Z,99.99
2022-07-30T08:29:19.042Z,99.99
2022-07-30T08:30:12.682Z,99.99
2022-07-30T08:31:12.635Z,99.99
2022-07-30T08:32:13.634Z,99.99
2022-07-30T08:33:12.661Z,99.99
2022-07-30T08:34:12.672Z,99.99
2022-07-30T08:35:12.689Z,99.99
2022-07-30T08:36:12.815Z,99.99
2022-07-30T08:37:16.243Z,99.99
2022-07-30T08:38:12.769Z,99.99
2022-07-30T08:39:12.652Z,99.99
2022-07-30T08:40:12.679Z,99.99
2022-07-30T08:41:12.664Z,99.99
2022-07-30T08:42:12.669Z,99.99
2022-07-30T08:43:12.701Z,99.99
2022-07-30T08:44:18.041Z,99.99
2022-07-30T08:45:12.696Z,99.99
2022-07-30T08:46:12.714Z,99.99
2022-07-30T08:47:12.700Z,99.99
2022-07-30T08:48:17.183Z,99.99
2022-07-30T08:49:15.407Z,99.99
2022-07-30T08:50:12.706Z,99.99
2022-07-30T08:51:12.680Z,99.99
2022-07-30T08:52:12.691Z,99.99
2022-07-30T08:53:12.667Z,99.99
2022-07-30T08:54:12.710Z,99.99
2022-07-30T08:55:12.700Z,99.99
2022-07-30T08:56:12.672Z,99.99
2022-07-30T08:57:12.675Z,99.99
2022-07-30T08:58:14.765Z,99.99
2022-07-30T08:59:12.673Z,99.99
2022-07-30T09:00:13.889Z,99.99
2022-07-30T09:01:12.681Z,99.99
2022-07-30T09:02:15.377Z,99.99
2022-07-30T09:03:12.716Z,99.99
2022-07-30T09:04:12.700Z,99.99
2022-07-30T09:05:12.706Z,99.99
2022-07-30T09:06:12.693Z,99.99
2022-07-30T09:07:13.327Z,99.99
2022-07-30T09:08:12.695Z,99.99
2022-07-30T09:09:12.698Z,99.99
2022-07-30T09:10:13.730Z,99.99
2022-07-30T09:11:15.533Z,99.99
2022-07-30T09:12:12.705Z,99.99
2022-07-30T09:13:15.859Z,99.99
2022-07-30T09:14:12.708Z,99.99
2022-07-30T09:15:12.712Z,99.99
2022-07-30T09:16:12.911Z,99.99
2022-07-30T09:17:12.709Z,99.99
2022-07-30T09:18:12.740Z,99.99
2022-07-30T09:19:12.712Z,99.99
2022-07-30T09:20:12.715Z,99.99
2022-07-30T09:21:12.718Z,99.99
2022-07-30T09:22:15.761Z,99.99
2022-07-30T09:23:12.713Z,99.99
2022-07-30T09:24:12.723Z,99.99
2022-07-30T09:25:12.723Z,99.99
2022-07-30T09:26:12.725Z,99.99
2022-07-30T09:27:12.727Z,99.99
2022-07-30T09:28:21.074Z,99.99
2022-07-30T09:29:12.728Z,99.99
2022-07-30T09:30:12.731Z,99.99
2022-07-30T09:31:12.741Z,99.99
2022-07-30T09:32:12.746Z,99.99
2022-07-30T09:33:15.909Z,99.99
2022-07-30T09:34:12.746Z,99.99
2022-07-30T09:35:12.742Z,99.99
2022-07-30T09:36:12.742Z,99.07
2022-07-30T09:37:14.999Z,98.97
2022-07-30T09:38:12.758Z,98.3
2022-07-30T09:39:12.750Z,99.07
2022-07-30T09:40:12.754Z,99.99
2022-07-30T09:41:38.566Z,99.99
2022-07-30T09:42:12.773Z,99.99
2022-07-30T09:43:12.753Z,99.99
2022-07-30T09:44:13.901Z,99.07
2022-07-30T09:45:12.759Z,98.97
2022-07-30T09:46:12.764Z,99.12
2022-07-30T09:47:12.763Z,98.25
2022-07-30T09:48:13.145Z,97.96
2022-07-30T09:49:13.053Z,98.25
2022-07-30T09:50:12.774Z,98.73
2022-07-30T09:51:20.299Z,98.15
2022-07-30T09:52:13.091Z,97.76
2022-07-30T09:53:14.492Z,95.78
2022-07-30T09:54:12.775Z,94.9
2022-07-30T09:55:15.619Z,94.56
2022-07-30T09:56:13.281Z,94.8
2022-07-30T09:57:28.551Z,94.02
2022-07-30T09:58:16.588Z,93.29
2022-07-30T09:59:21.926Z,92.71
2022-07-30T10:00:13.089Z,92.66
2022-07-30T10:01:12.799Z,93.34
2022-07-30T10:02:12.941Z,92.32
2022-07-30T10:03:33.423Z,90.47
2022-07-30T10:04:13.468Z,90.08
2022-07-30T10:05:16.534Z,89.25
2022-07-30T10:06:17.060Z,89.25
2022-07-30T10:07:14.847Z,87.6
2022-07-30T10:08:19.170Z,87.26
2022-07-30T10:09:19.209Z,87.85
2022-07-30T10:10:12.820Z,87.79
2022-07-30T10:11:13.857Z,87.02
2022-07-30T10:12:13.324Z,85.85
2022-07-30T10:13:19.111Z,86.39
2022-07-30T10:14:12.819Z,86.78
2022-07-30T10:15:15.812Z,86.63
2022-07-30T10:16:12.944Z,86.98
2022-07-30T10:17:15.041Z,87.02
2022-07-30T10:18:12.816Z,85.89
2022-07-30T10:19:23.384Z,86.43
2022-07-30T10:20:14.775Z,86.43
2022-07-30T10:21:12.884Z,86.14
2022-07-30T10:22:13.880Z,86.53
2022-07-30T10:23:19.337Z,87.79
2022-07-30T10:24:12.848Z,87.4
2022-07-30T10:25:18.477Z,86.57
2022-07-30T10:26:12.988Z,86.77
2022-07-30T10:27:14.567Z,86.61
2022-07-30T10:28:12.846Z,86.13
2022-07-30T10:29:15.864Z,86.22
2022-07-30T10:30:16.200Z,85.35
2022-07-30T10:31:54.312Z,84.38
2022-07-30T10:32:12.880Z,84.52
2022-07-30T10:33:40.058Z,83.93
2022-07-30T10:34:13.979Z,83.73
2022-07-30T10:35:13.190Z,83.93
2022-07-30T10:36:12.887Z,83
2022-07-30T10:37:14.572Z,82.6
2022-07-30T10:38:16.326Z,82.7
2022-07-30T10:39:13.250Z,82.41
2022-07-30T10:40:14.110Z,81.54
2022-07-30T10:41:12.893Z,81.4
2022-07-30T10:42:13.169Z,82.08
2022-07-30T10:43:18.253Z,82.14
2022-07-30T10:44:17.945Z,83.11
2022-07-30T10:45:19.900Z,82.39
2022-07-30T10:46:25.132Z,83.07
2022-07-30T10:47:13.152Z,84
2022-07-30T10:48:15.713Z,84.43
2022-07-30T10:49:19.924Z,84.88
2022-07-30T10:50:14.206Z,83.71
2022-07-30T10:51:25.738Z,84.39
2022-07-30T10:52:12.893Z,84.64
2022-07-30T10:53:13.465Z,84.45
2022-07-30T10:54:14.140Z,84.31
2022-07-30T10:55:17.929Z,84.66
2022-07-30T10:56:12.918Z,85.43
2022-07-30T10:57:22.462Z,85.43
2022-07-30T10:58:14.434Z,85.33
2022-07-30T10:59:12.901Z,85.92
2022-07-30T11:00:17.697Z,86.55
2022-07-30T11:01:20.777Z,87.52
2022-07-30T11:02:12.902Z,88.98
2022-07-30T11:03:18.245Z,89.42
2022-07-30T11:04:12.917Z,90.97
2022-07-30T11:05:12.954Z,91.51
2022-07-30T11:06:12.940Z,92.38
2022-07-30T11:07:19.328Z,92.29
2022-07-30T11:08:16.622Z,92.53
2022-07-30T11:09:13.824Z,92.63
2022-07-30T11:10:12.949Z,93.21
2022-07-30T11:11:28.611Z,93.21
2022-07-30T11:12:25.014Z,93.21
2022-07-30T11:13:27.372Z,92.24
2022-07-30T11:14:26.543Z,92.63
2022-07-30T11:15:24.977Z,93.16
2022-07-30T11:16:25.070Z,92.68
2022-07-30T11:17:24.972Z,92.39
2022-07-30T11:18:27.227Z,92.43
2022-07-30T11:19:59.602Z,93.02
2022-07-30T11:20:26.744Z,93.5
2022-07-30T11:21:25.150Z,93.11
2022-07-30T11:22:25.447Z,93.5
2022-07-30T11:23:24.987Z,94.18
2022-07-30T11:24:24.987Z,94.57
2022-07-30T11:25:24.981Z,95.34
2022-07-30T11:26:27.285Z,96.12
2022-07-30T11:27:24.991Z,96.31
2022-07-30T11:28:29.925Z,96.02
2022-07-30T11:29:50.267Z,96.41
2022-07-30T11:30:26.000Z,95.87
2022-07-30T11:31:56.740Z,96.02
2022-07-30T11:32:24.996Z,96.12
2022-07-30T11:33:34.560Z,95.92
2022-07-30T11:34:31.407Z,95.73
2022-07-30T11:35:25.584Z,95.15
2022-07-30T11:36:26.710Z,94.23
2022-07-30T11:37:34.424Z,93.74
2022-07-30T11:38:25.008Z,94.27
2022-07-30T11:39:40.969Z,91.41
2022-07-30T11:40:28.828Z,90
2022-07-30T11:41:25.038Z,89.8
2022-07-30T11:42:25.020Z,88.64
2022-07-30T11:43:38.804Z,88.79
2022-07-30T11:44:25.020Z,90
2022-07-30T11:45:25.026Z,89.22
2022-07-30T11:46:32.067Z,87.57
2022-07-30T11:47:25.025Z,86.6
2022-07-30T11:48:25.032Z,86.85
2022-07-30T11:49:25.302Z,86.55
2022-07-30T11:50:27.848Z,86.89
2022-07-30T11:51:25.056Z,86.6
2022-07-30T11:52:25.045Z,87.08
2022-07-30T11:53:25.039Z,87.08
2022-07-30T11:54:25.035Z,86.69
2022-07-30T11:55:25.041Z,86.79
2022-07-30T11:56:25.069Z,86.3
2022-07-30T11:57:26.027Z,86.69
2022-07-30T11:58:25.046Z,86.71
2022-07-30T11:59:25.057Z,86.99
2022-07-30T12:00:25.099Z,87.87
2022-07-30T12:01:28.445Z,89.32
2022-07-30T12:02:25.055Z,90.48
2022-07-30T12:03:25.056Z,90.88
2022-07-30T12:04:25.061Z,91.02
2022-07-30T12:05:25.055Z,91.36
2022-07-30T12:06:25.054Z,91.65
2022-07-30T12:07:25.068Z,91.46
2022-07-30T12:08:38.564Z,90.83
2022-07-30T12:09:27.379Z,92.23
2022-07-30T12:10:29.654Z,91.36
2022-07-30T12:11:25.068Z,91.07
2022-07-30T12:12:28.219Z,91.36
2022-07-30T12:13:50.040Z,91.27
2022-07-30T12:14:25.089Z,90.97
2022-07-30T12:15:25.084Z,90.06
2022-07-30T12:16:25.100Z,89.18
2022-07-30T12:17:25.337Z,89.18
2022-07-30T12:18:29.283Z,86.52
2022-07-30T12:19:25.086Z,86.87
2022-07-30T12:20:25.089Z,86.91
2022-07-30T12:21:25.099Z,87.01
2022-07-30T12:22:25.091Z,87.64
2022-07-30T12:23:28.233Z,88.9
2022-07-30T12:24:25.101Z,88.71
2022-07-30T12:25:25.107Z,89
2022-07-30T12:26:26.592Z,88.9
2022-07-30T12:27:25.101Z,89.19
2022-07-30T12:28:25.104Z,90.06
2022-07-30T12:29:25.107Z,90.26
2022-07-30T12:30:25.105Z,90.55
2022-07-30T12:31:25.121Z,90.74
2022-07-30T12:32:25.106Z,90.36
2022-07-30T12:33:25.116Z,90.78
2022-07-30T12:34:25.124Z,90.88
2022-07-30T12:35:25.112Z,89.92
2022-07-30T12:36:25.116Z,90.16
2022-07-30T12:37:25.463Z,89.86
2022-07-30T12:38:25.119Z,89.32
2022-07-30T12:39:25.132Z,87.82
2022-07-30T12:40:25.129Z,86.79
2022-07-30T12:41:25.123Z,85.43
2022-07-30T12:42:25.132Z,83.97
2022-07-30T12:43:25.135Z,83.59
2022-07-30T12:44:25.136Z,83.59
2022-07-30T12:45:25.147Z,83.59
2022-07-30T12:46:25.142Z,83.82
2022-07-30T12:47:25.151Z,83.63
2022-07-30T12:48:25.303Z,82.17
2022-07-30T12:49:25.480Z,82.11
2022-07-30T12:50:25.149Z,81.92
2022-07-30T12:51:25.141Z,80.3
2022-07-30T12:52:31.540Z,80.4
2022-07-30T12:53:25.149Z,80.5
2022-07-30T12:54:25.149Z,80.64
2022-07-30T12:55:28.046Z,81.32
2022-07-30T12:56:25.153Z,80.15
2022-07-30T12:57:25.159Z,80
2022-07-30T12:58:25.164Z,78.58